sensor_id;sensor_type;location;lat;lon;timestamp;pressure;altitude;pressure_sealevel;temperature;humidity
55044;BME280;54902;50.420;18.854;2023-07-20T00:00:23;100557.82;;;19.93;51.17
55044;BME280;54902;50.420;18.854;2023-07-20T00:00:54;100560.59;;;19.93;51.16
55044;BME280;54902;50.420;18.854;2023-07-20T00:01:24;100556.96;;;19.93;51.24
55044;BME280;54902;50.420;18.854;2023-07-20T00:01:55;100550.55;;;19.92;51.25
55044;BME280;54902;50.420;18.854;2023-07-20T00:02:26;100562.52;;;19.93;51.24
55044;BME280;54902;50.420;18.854;2023-07-20T00:03:40;100555.23;;;19.92;51.25
55044;BME280;54902;50.420;18.854;2023-07-20T00:04:12;100555.23;;;19.92;51.28
55044;BME280;54902;50.420;18.854;2023-07-20T00:04:44;100558.87;;;19.92;51.30
55044;BME280;54902;50.420;18.854;2023-07-20T00:05:15;100554.36;;;19.91;51.36
55044;BME280;54902;50.420;18.854;2023-07-20T00:05:49;100556.29;;;19.91;51.35
55044;BME280;54902;50.420;18.854;2023-07-20T00:06:21;100549.69;;;19.92;51.37
55044;BME280;54902;50.420;18.854;2023-07-20T00:06:54;100556.29;;;19.91;51.39
55044;BME280;54902;50.420;18.854;2023-07-20T00:07:25;100557.14;;;19.91;51.34
55044;BME280;54902;50.420;18.854;2023-07-20T00:07:56;100564.61;;;19.91;51.33
55044;BME280;54902;50.420;18.854;2023-07-20T00:08:27;100551.78;;;19.90;51.32
55044;BME280;54902;50.420;18.854;2023-07-20T00:08:58;100555.45;;;19.90;51.32
55044;BME280;54902;50.420;18.854;2023-07-20T00:09:29;100561.16;;;19.89;51.29
55044;BME280;54902;50.420;18.854;2023-07-20T00:10:00;100568.43;;;19.90;51.27
55044;BME280;54902;50.420;18.854;2023-07-20T00:10:31;100573.09;;;19.89;51.26
55044;BME280;54902;50.420;18.854;2023-07-20T00:11:02;100577.79;;;19.89;51.19
55044;BME280;54902;50.420;18.854;2023-07-20T00:11:36;100581.41;;;19.89;51.11
55044;BME280;54902;50.420;18.854;2023-07-20T00:12:09;100588.00;;;19.88;51.12
55044;BME280;54902;50.420;18.854;2023-07-20T00:12:39;100597.37;;;19.87;51.11
55044;BME280;54902;50.420;18.854;2023-07-20T00:13:11;100599.10;;;19.88;51.09
55044;BME280;54902;50.420;18.854;2023-07-20T00:13:42;100611.07;;;19.89;51.07
55044;BME280;54902;50.420;18.854;2023-07-20T00:14:13;100624.94;;;19.89;51.13
55044;BME280;54902;50.420;18.854;2023-07-20T00:14:44;100639.66;;;19.89;51.21
55044;BME280;54902;50.420;18.854;2023-07-20T00:15:15;100647.13;;;19.89;51.31
55044;BME280;54902;50.420;18.854;2023-07-20T00:15:46;100654.41;;;19.90;51.28
55044;BME280;54902;50.420;18.854;2023-07-20T00:16:17;100646.08;;;19.90;51.36
55044;BME280;54902;50.420;18.854;2023-07-20T00:16:50;100655.29;;;19.90;51.53
55044;BME280;54902;50.420;18.854;2023-07-20T00:17:26;100658.91;;;19.91;51.63
55044;BME280;54902;50.420;18.854;2023-07-20T00:17:57;100662.54;;;19.91;51.52
55044;BME280;54902;50.420;18.854;2023-07-20T00:18:28;100660.64;;;19.92;51.56
55044;BME280;54902;50.420;18.854;2023-07-20T00:18:59;100651.27;;;19.93;51.83
55044;BME280;54902;50.420;18.854;2023-07-20T00:19:30;100667.91;;;19.93;52.05
55044;BME280;54902;50.420;18.854;2023-07-20T00:20:02;100654.05;;;19.93;52.30
55044;BME280;54902;50.420;18.854;2023-07-20T00:20:36;100663.22;;;19.93;52.46
55044;BME280;54902;50.420;18.854;2023-07-20T00:21:07;100660.45;;;19.93;52.51
55044;BME280;54902;50.420;18.854;2023-07-20T00:21:38;100663.02;;;19.95;52.85
55044;BME280;54902;50.420;18.854;2023-07-20T00:22:12;100667.72;;;19.94;52.67
55044;BME280;54902;50.420;18.854;2023-07-20T00:22:44;100666.84;;;19.94;52.78
55044;BME280;54902;50.420;18.854;2023-07-20T00:23:15;100669.62;;;19.94;52.78
55044;BME280;54902;50.420;18.854;2023-07-20T00:23:45;100665.14;;;19.93;52.89
55044;BME280;54902;50.420;18.854;2023-07-20T00:24:16;100672.39;;;19.94;53.17
55044;BME280;54902;50.420;18.854;2023-07-20T00:24:47;100670.70;;;19.93;53.16
55044;BME280;54902;50.420;18.854;2023-07-20T00:25:20;100674.52;;;19.92;53.32
55044;BME280;54902;50.420;18.854;2023-07-20T00:25:51;100680.06;;;19.92;53.27
55044;BME280;54902;50.420;18.854;2023-07-20T00:26:22;100677.48;;;19.90;53.27
55044;BME280;54902;50.420;18.854;2023-07-20T00:26:53;100680.26;;;19.90;53.16
55044;BME280;54902;50.420;18.854;2023-07-20T00:27:24;100688.74;;;19.89;53.63
55044;BME280;54902;50.420;18.854;2023-07-20T00:27:55;100687.20;;;19.86;53.63
55044;BME280;54902;50.420;18.854;2023-07-20T00:28:26;100693.79;;;19.85;53.41
55044;BME280;54902;50.420;18.854;2023-07-20T00:28:57;100691.21;;;19.84;53.28
55044;BME280;54902;50.420;18.854;2023-07-20T00:29:28;100680.51;;;19.81;53.19
55044;BME280;54902;50.420;18.854;2023-07-20T00:29:58;100677.89;;;19.80;53.33
55044;BME280;54902;50.420;18.854;2023-07-20T00:30:30;100675.32;;;19.78;53.27
55044;BME280;54902;50.420;18.854;2023-07-20T00:31:01;100681.06;;;19.77;53.35
55044;BME280;54902;50.420;18.854;2023-07-20T00:31:33;100678.48;;;19.75;53.27
55044;BME280;54902;50.420;18.854;2023-07-20T00:32:07;100672.24;;;19.73;53.40
55044;BME280;54902;50.420;18.854;2023-07-20T00:32:38;100675.21;;;19.72;53.31
55044;BME280;54902;50.420;18.854;2023-07-20T00:33:10;100676.45;;;19.69;53.27
55044;BME280;54902;50.420;18.854;2023-07-20T00:33:41;100673.67;;;19.69;53.28
55044;BME280;54902;50.420;18.854;2023-07-20T00:34:12;100673.20;;;19.66;53.26
55044;BME280;54902;50.420;18.854;2023-07-20T00:34:43;100671.48;;;19.65;53.21
55044;BME280;54902;50.420;18.854;2023-07-20T00:35:14;100662.01;;;19.59;53.50
55044;BME280;54902;50.420;18.854;2023-07-20T00:35:45;100674.64;;;19.62;53.31
55044;BME280;54902;50.420;18.854;2023-07-20T00:36:17;100671.17;;;19.60;53.22
55044;BME280;54902;50.420;18.854;2023-07-20T00:36:48;100680.54;;;19.59;53.54
55044;BME280;54902;50.420;18.854;2023-07-20T00:37:19;100677.97;;;19.57;53.45
55044;BME280;54902;50.420;18.854;2023-07-20T00:37:50;100679.88;;;19.57;53.50
55044;BME280;54902;50.420;18.854;2023-07-20T00:38:21;100680.08;;;19.55;53.44
55044;BME280;54902;50.420;18.854;2023-07-20T00:38:52;100683.04;;;19.54;53.54
55044;BME280;54902;50.420;18.854;2023-07-20T00:39:23;100679.58;;;19.52;53.44
55044;BME280;54902;50.420;18.854;2023-07-20T00:39:54;100681.49;;;19.51;53.42
55044;BME280;54902;50.420;18.854;2023-07-20T00:40:25;100680.81;;;19.49;53.38
55044;BME280;54902;50.420;18.854;2023-07-20T00:40:57;100680.16;;;19.47;53.36
55044;BME280;54902;50.420;18.854;2023-07-20T00:41:28;100673.73;;;19.47;53.40
55044;BME280;54902;50.420;18.854;2023-07-20T00:42:00;100679.46;;;19.45;53.41
55044;BME280;54902;50.420;18.854;2023-07-20T00:42:31;100676.88;;;19.44;53.60
55044;BME280;54902;50.420;18.854;2023-07-20T00:43:02;100677.74;;;19.44;53.78
55044;BME280;54902;50.420;18.854;2023-07-20T00:43:33;100681.58;;;19.43;53.59
55044;BME280;54902;50.420;18.854;2023-07-20T00:44:04;100690.08;;;19.42;53.70
55044;BME280;54902;50.420;18.854;2023-07-20T00:44:35;100687.46;;;19.40;53.59
55044;BME280;54902;50.420;18.854;2023-07-20T00:45:06;100684.70;;;19.40;53.55
55044;BME280;54902;50.420;18.854;2023-07-20T00:45:38;100687.66;;;19.39;53.61
55044;BME280;54902;50.420;18.854;2023-07-20T00:46:09;100682.31;;;19.37;53.68
55044;BME280;54902;50.420;18.854;2023-07-20T00:46:41;100692.55;;;19.37;53.56
55044;BME280;54902;50.420;18.854;2023-07-20T00:47:14;100685.27;;;19.36;53.49
55044;BME280;54902;50.420;18.854;2023-07-20T00:47:46;100680.96;;;19.33;53.56
55044;BME280;54902;50.420;18.854;2023-07-20T00:48:17;100688.24;;;19.34;53.67
55044;BME280;54902;50.420;18.854;2023-07-20T00:48:49;100676.47;;;19.32;53.55
55044;BME280;54902;50.420;18.854;2023-07-20T00:49:20;100672.84;;;19.32;53.52
55044;BME280;54902;50.420;18.854;2023-07-20T00:49:53;100672.00;;;19.31;53.59
55044;BME280;54902;50.420;18.854;2023-07-20T00:50:26;100670.26;;;19.30;53.55
55044;BME280;54902;50.420;18.854;2023-07-20T00:50:59;100664.72;;;19.30;53.55
55044;BME280;54902;50.420;18.854;2023-07-20T00:51:31;100668.52;;;19.29;53.53
55044;BME280;54902;50.420;18.854;2023-07-20T00:52:03;100672.16;;;19.30;53.61
55044;BME280;54902;50.420;18.854;2023-07-20T00:52:37;100666.80;;;19.28;53.59
55044;BME280;54902;50.420;18.854;2023-07-20T00:53:10;100666.80;;;19.28;53.59
55044;BME280;54902;50.420;18.854;2023-07-20T00:53:41;100665.06;;;19.27;53.56
55044;BME280;54902;50.420;18.854;2023-07-20T00:54:12;100667.84;;;19.27;53.59
55044;BME280;54902;50.420;18.854;2023-07-20T00:54:44;100667.84;;;19.27;53.59
55044;BME280;54902;50.420;18.854;2023-07-20T00:55:15;100660.41;;;19.28;53.71
55044;BME280;54902;50.420;18.854;2023-07-20T00:55:46;100658.67;;;19.27;53.78
55044;BME280;54902;50.420;18.854;2023-07-20T00:56:17;100661.63;;;19.26;53.82
55044;BME280;54902;50.420;18.854;2023-07-20T00:56:49;100661.45;;;19.27;53.94
55044;BME280;54902;50.420;18.854;2023-07-20T00:57:21;100656.94;;;19.26;54.22
55044;BME280;54902;50.420;18.854;2023-07-20T00:57:52;100656.10;;;19.26;54.22
55044;BME280;54902;50.420;18.854;2023-07-20T00:58:23;100655.25;;;19.25;54.17
55044;BME280;54902;50.420;18.854;2023-07-20T00:58:54;100649.71;;;19.25;54.22
55044;BME280;54902;50.420;18.854;2023-07-20T00:59:25;100653.33;;;19.26;54.20
55044;BME280;54902;50.420;18.854;2023-07-20T00:59:57;100656.10;;;19.26;54.21
55044;BME280;54902;50.420;18.854;2023-07-20T01:00:28;100653.52;;;19.24;54.64
55044;BME280;54902;50.420;18.854;2023-07-20T01:00:58;100658.18;;;19.24;54.91
55044;BME280;54902;50.420;18.854;2023-07-20T01:01:29;100657.13;;;19.25;54.86
55044;BME280;54902;50.420;18.854;2023-07-20T01:02:00;100652.64;;;19.24;54.63
55044;BME280;54902;50.420;18.854;2023-07-20T01:02:31;100653.72;;;19.23;54.63
55044;BME280;54902;50.420;18.854;2023-07-20T01:03:02;100652.83;;;19.22;54.62
55044;BME280;54902;50.420;18.854;2023-07-20T01:03:33;100651.98;;;19.22;54.56
55044;BME280;54902;50.420;18.854;2023-07-20T01:04:04;100655.80;;;19.21;54.54
55044;BME280;54902;50.420;18.854;2023-07-20T01:04:36;100653.02;;;19.21;54.54
55044;BME280;54902;50.420;18.854;2023-07-20T01:05:08;100652.36;;;19.19;54.53
55044;BME280;54902;50.420;18.854;2023-07-20T01:05:48;100646.83;;;19.19;54.55
55044;BME280;54902;50.420;18.854;2023-07-20T01:06:33;100653.41;;;19.18;54.54
55044;BME280;54902;50.420;18.854;2023-07-20T01:08:00;100644.40;;;19.16;54.58
55044;BME280;54902;50.420;18.854;2023-07-20T01:08:43;100644.59;;;19.14;54.69
55044;BME280;54902;50.420;18.854;2023-07-20T01:09:19;100636.29;;;19.14;54.64
55044;BME280;54902;50.420;18.854;2023-07-20T01:10:08;100642.86;;;19.13;54.45
55044;BME280;54902;50.420;18.854;2023-07-20T01:10:51;100635.81;;;19.11;54.58
55044;BME280;54902;50.420;18.854;2023-07-20T01:11:36;100641.16;;;19.12;54.52
55044;BME280;54902;50.420;18.854;2023-07-20T01:12:55;100630.27;;;19.11;54.49
55044;BME280;54902;50.420;18.854;2023-07-20T01:13:26;100636.66;;;19.11;54.47
55044;BME280;54902;50.420;18.854;2023-07-20T01:13:57;100638.58;;;19.11;54.67
55044;BME280;54902;50.420;18.854;2023-07-20T01:14:29;100643.24;;;19.10;54.72
55044;BME280;54902;50.420;18.854;2023-07-20T01:15:00;100637.70;;;19.10;54.74
55044;BME280;54902;50.420;18.854;2023-07-20T01:15:33;100635.81;;;19.11;54.74
55044;BME280;54902;50.420;18.854;2023-07-20T01:16:04;100645.16;;;19.10;54.74
55044;BME280;54902;50.420;18.854;2023-07-20T01:16:35;100640.47;;;19.10;54.72
55044;BME280;54902;50.420;18.854;2023-07-20T01:17:06;100638.58;;;19.11;54.72
55044;BME280;54902;50.420;18.854;2023-07-20T01:17:37;100634.08;;;19.10;54.84
55044;BME280;54902;50.420;18.854;2023-07-20T01:18:08;100629.39;;;19.10;54.94
55044;BME280;54902;50.420;18.854;2023-07-20T01:18:39;100633.20;;;19.09;54.93
55044;BME280;54902;50.420;18.854;2023-07-20T01:19:12;100629.58;;;19.09;54.80
55044;BME280;54902;50.420;18.854;2023-07-20T01:19:44;100628.55;;;19.10;54.88
55044;BME280;54902;50.420;18.854;2023-07-20T01:20:19;100640.66;;;19.09;54.86
55044;BME280;54902;50.420;18.854;2023-07-20T01:20:54;100621.27;;;19.09;54.94
55044;BME280;54902;50.420;18.854;2023-07-20T01:23:57;100632.35;;;19.09;54.67
55044;BME280;54902;50.420;18.854;2023-07-20T01:25:11;100635.12;;;19.09;54.61
55044;BME280;54902;50.420;18.854;2023-07-20T01:26:38;100643.44;;;19.09;54.95
55044;BME280;54902;50.420;18.854;2023-07-20T01:30:16;100644.47;;;19.08;54.68
55044;BME280;54902;50.420;18.854;2023-07-20T01:30:59;100649.82;;;19.09;54.81
55044;BME280;54902;50.420;18.854;2023-07-20T01:31:33;100653.85;;;19.07;54.82
55044;BME280;54902;50.420;18.854;2023-07-20T01:32:08;100651.94;;;19.07;54.75
55044;BME280;54902;50.420;18.854;2023-07-20T01:32:42;100651.09;;;19.07;54.78
55044;BME280;54902;50.420;18.854;2023-07-20T01:33:16;100649.35;;;19.06;54.82
55044;BME280;54902;50.420;18.854;2023-07-20T01:33:50;100647.59;;;19.05;54.89
55044;BME280;54902;50.420;18.854;2023-07-20T01:34:23;100653.13;;;19.05;54.85
55044;BME280;54902;50.420;18.854;2023-07-20T01:34:56;100643.97;;;19.04;54.87
55044;BME280;54902;50.420;18.854;2023-07-20T01:35:30;100649.66;;;19.03;54.88
55044;BME280;54902;50.420;18.854;2023-07-20T01:36:03;100656.09;;;19.03;54.89
55044;BME280;54902;50.420;18.854;2023-07-20T01:36:35;100644.13;;;19.03;54.90
55044;BME280;54902;50.420;18.854;2023-07-20T01:37:08;100652.43;;;19.03;54.92
55044;BME280;54902;50.420;18.854;2023-07-20T01:37:43;100648.81;;;19.02;54.93
55044;BME280;54902;50.420;18.854;2023-07-20T01:38:16;100651.59;;;19.02;54.92
55044;BME280;54902;50.420;18.854;2023-07-20T01:38:48;100645.20;;;19.02;54.95
55044;BME280;54902;50.420;18.854;2023-07-20T01:39:20;100651.77;;;19.01;54.92
55044;BME280;54902;50.420;18.854;2023-07-20T01:39:53;100645.39;;;19.00;54.93
55044;BME280;54902;50.420;18.854;2023-07-20T01:40:27;100647.28;;;19.00;55.14
55044;BME280;54902;50.420;18.854;2023-07-20T01:40:59;100645.55;;;18.99;55.24
55044;BME280;54902;50.420;18.854;2023-07-20T01:41:30;100646.42;;;18.99;55.08
55044;BME280;54902;50.420;18.854;2023-07-20T01:42:02;100648.31;;;18.99;55.00
55044;BME280;54902;50.420;18.854;2023-07-20T01:42:33;100640.20;;;18.97;55.11
55044;BME280;54902;50.420;18.854;2023-07-20T01:43:04;100641.09;;;18.98;55.10
55044;BME280;54902;50.420;18.854;2023-07-20T01:43:35;100640.20;;;18.97;55.18
55044;BME280;54902;50.420;18.854;2023-07-20T01:44:07;100639.34;;;18.97;55.11
55044;BME280;54902;50.420;18.854;2023-07-20T01:44:38;100643.16;;;18.96;55.03
55044;BME280;54902;50.420;18.854;2023-07-20T01:45:09;100654.23;;;18.96;55.00
55044;BME280;54902;50.420;18.854;2023-07-20T01:45:40;100645.92;;;18.96;55.03
55044;BME280;54902;50.420;18.854;2023-07-20T01:46:11;100657.19;;;18.94;54.98
55044;BME280;54902;50.420;18.854;2023-07-20T01:46:42;100656.34;;;18.94;55.03
55044;BME280;54902;50.420;18.854;2023-07-20T01:47:13;100659.11;;;18.94;54.99
55044;BME280;54902;50.420;18.854;2023-07-20T01:47:44;100659.11;;;18.94;55.26
55044;BME280;54902;50.420;18.854;2023-07-20T01:48:15;100665.69;;;18.93;55.15
55044;BME280;54902;50.420;18.854;2023-07-20T01:48:47;100656.54;;;18.92;55.32
55044;BME280;54902;50.420;18.854;2023-07-20T01:49:18;100660.15;;;18.93;55.28
55044;BME280;54902;50.420;18.854;2023-07-20T01:49:49;100674.19;;;18.91;55.21
55044;BME280;54902;50.420;18.854;2023-07-20T01:50:20;100670.53;;;18.91;55.27
55044;BME280;54902;50.420;18.854;2023-07-20T01:50:50;100668.83;;;18.90;55.31
55044;BME280;54902;50.420;18.854;2023-07-20T01:51:21;100676.27;;;18.89;55.32
55044;BME280;54902;50.420;18.854;2023-07-20T01:51:52;100671.61;;;18.90;55.47
55044;BME280;54902;50.420;18.854;2023-07-20T01:52:23;100677.30;;;18.88;55.40
55044;BME280;54902;50.420;18.854;2023-07-20T01:52:54;100677.30;;;18.88;55.47
55044;BME280;54902;50.420;18.854;2023-07-20T01:53:25;100676.45;;;18.88;55.52
55044;BME280;54902;50.420;18.854;2023-07-20T01:53:56;100676.64;;;18.86;55.61
55044;BME280;54902;50.420;18.854;2023-07-20T01:54:27;100673.02;;;18.86;55.56
55044;BME280;54902;50.420;18.854;2023-07-20T01:54:58;100675.79;;;18.86;55.58
55044;BME280;54902;50.420;18.854;2023-07-20T01:55:29;100683.03;;;18.87;55.72
55044;BME280;54902;50.420;18.854;2023-07-20T01:56:00;100675.79;;;18.86;55.76
55044;BME280;54902;50.420;18.854;2023-07-20T01:56:31;100681.33;;;18.86;56.00
55044;BME280;54902;50.420;18.854;2023-07-20T01:57:02;100685.13;;;18.85;56.19
55044;BME280;54902;50.420;18.854;2023-07-20T01:57:34;100679.59;;;18.85;56.38
55044;BME280;54902;50.420;18.854;2023-07-20T01:58:05;100683.40;;;18.84;56.34
55044;BME280;54902;50.420;18.854;2023-07-20T01:58:37;100686.17;;;18.84;56.47
55044;BME280;54902;50.420;18.854;2023-07-20T01:59:08;100689.97;;;18.83;56.49
55044;BME280;54902;50.420;18.854;2023-07-20T01:59:39;100694.66;;;18.82;56.63
55044;BME280;54902;50.420;18.854;2023-07-20T02:00:11;100688.27;;;18.82;56.94
55044;BME280;54902;50.420;18.854;2023-07-20T02:00:42;100689.13;;;18.82;57.04
55044;BME280;54902;50.420;18.854;2023-07-20T02:01:13;100681.01;;;18.81;56.87
55044;BME280;54902;50.420;18.854;2023-07-20T02:01:44;100684.82;;;18.80;56.91
55044;BME280;54902;50.420;18.854;2023-07-20T02:02:15;100685.85;;;18.79;56.86
55044;BME280;54902;50.420;18.854;2023-07-20T02:02:46;100687.58;;;18.80;57.02
55044;BME280;54902;50.420;18.854;2023-07-20T02:03:17;100689.66;;;18.78;57.19
55044;BME280;54902;50.420;18.854;2023-07-20T02:03:48;100689.66;;;18.78;57.36
55044;BME280;54902;50.420;18.854;2023-07-20T02:04:18;100690.72;;;18.77;57.29
55044;BME280;54902;50.420;18.854;2023-07-20T02:04:49;100686.23;;;18.76;57.33
55044;BME280;54902;50.420;18.854;2023-07-20T02:05:20;100689.00;;;18.76;57.58
55044;BME280;54902;50.420;18.854;2023-07-20T02:05:51;100696.45;;;18.75;57.51
55044;BME280;54902;50.420;18.854;2023-07-20T02:06:22;100694.72;;;18.74;57.69
55044;BME280;54902;50.420;18.854;2023-07-20T02:06:53;100699.38;;;18.74;57.99
55044;BME280;54902;50.420;18.854;2023-07-20T02:07:24;100699.38;;;18.74;57.94
55044;BME280;54902;50.420;18.854;2023-07-20T02:07:55;100697.68;;;18.73;57.82
55044;BME280;54902;50.420;18.854;2023-07-20T02:08:26;100698.71;;;18.72;57.71
55044;BME280;54902;50.420;18.854;2023-07-20T02:08:57;100693.18;;;18.72;57.63
55044;BME280;54902;50.420;18.854;2023-07-20T02:09:28;100694.21;;;18.71;58.10
55044;BME280;54902;50.420;18.854;2023-07-20T02:09:59;100693.35;;;18.70;58.26
55044;BME280;54902;50.420;18.854;2023-07-20T02:10:30;100696.31;;;18.69;58.24
55044;BME280;54902;50.420;18.854;2023-07-20T02:11:01;100694.58;;;18.68;58.18
55044;BME280;54902;50.420;18.854;2023-07-20T02:11:34;100698.39;;;18.67;58.01
55044;BME280;54902;50.420;18.854;2023-07-20T02:12:06;100692.84;;;18.67;58.11
55044;BME280;54902;50.420;18.854;2023-07-20T02:12:37;100695.80;;;18.66;57.96
55044;BME280;54902;50.420;18.854;2023-07-20T02:13:08;100689.41;;;18.65;58.10
55044;BME280;54902;50.420;18.854;2023-07-20T02:13:38;100692.19;;;18.65;58.04
55044;BME280;54902;50.420;18.854;2023-07-20T02:14:09;100688.53;;;18.65;58.95
55044;BME280;54902;50.420;18.854;2023-07-20T02:14:40;100686.80;;;18.64;58.88
55044;BME280;54902;50.420;18.854;2023-07-20T02:15:11;100685.95;;;18.63;58.66
55044;BME280;54902;50.420;18.854;2023-07-20T02:15:45;100691.49;;;18.63;58.88
55044;BME280;54902;50.420;18.854;2023-07-20T02:16:19;100689.76;;;18.62;58.64
55044;BME280;54902;50.420;18.854;2023-07-20T02:16:50;100693.59;;;18.61;58.85
55044;BME280;54902;50.420;18.854;2023-07-20T02:17:29;100688.21;;;18.60;58.88
55044;BME280;54902;50.420;18.854;2023-07-20T02:18:00;100699.47;;;18.58;58.90
55044;BME280;54902;50.420;18.854;2023-07-20T02:18:33;100690.13;;;18.59;58.87
55044;BME280;54902;50.420;18.854;2023-07-20T02:19:07;100692.90;;;18.59;59.35
55044;BME280;54902;50.420;18.854;2023-07-20T02:19:38;100697.78;;;18.57;59.09
55044;BME280;54902;50.420;18.854;2023-07-20T02:20:10;100695.86;;;18.58;59.74
55044;BME280;54902;50.420;18.854;2023-07-20T02:20:41;100703.30;;;18.57;59.44
55044;BME280;54902;50.420;18.854;2023-07-20T02:21:12;100688.77;;;18.55;59.56
55044;BME280;54902;50.420;18.854;2023-07-20T02:21:43;100688.77;;;18.55;59.58
55044;BME280;54902;50.420;18.854;2023-07-20T02:22:14;100683.24;;;18.55;59.82
55044;BME280;54902;50.420;18.854;2023-07-20T02:22:47;100702.80;;;18.54;59.92
55044;BME280;54902;50.420;18.854;2023-07-20T02:23:18;100694.68;;;18.52;60.50
55044;BME280;54902;50.420;18.854;2023-07-20T02:23:49;100707.48;;;18.53;60.41
55044;BME280;54902;50.420;18.854;2023-07-20T02:24:20;100705.74;;;18.52;60.60
55044;BME280;54902;50.420;18.854;2023-07-20T02:24:50;100702.98;;;18.52;60.70
55044;BME280;54902;50.420;18.854;2023-07-20T02:25:21;100710.40;;;18.52;60.81
55044;BME280;54902;50.420;18.854;2023-07-20T02:25:52;100706.79;;;18.51;61.19
55044;BME280;54902;50.420;18.854;2023-07-20T02:26:23;100705.05;;;18.50;61.18
55044;BME280;54902;50.420;18.854;2023-07-20T02:26:54;100704.20;;;18.50;60.83
55044;BME280;54902;50.420;18.854;2023-07-20T02:27:25;100705.23;;;18.49;60.71
55044;BME280;54902;50.420;18.854;2023-07-20T02:27:56;100699.70;;;18.49;60.94
55044;BME280;54902;50.420;18.854;2023-07-20T02:28:28;100705.23;;;18.49;60.83
55044;BME280;54902;50.420;18.854;2023-07-20T02:28:59;100708.19;;;18.47;61.18
55044;BME280;54902;50.420;18.854;2023-07-20T02:29:30;100709.23;;;18.46;61.01
55044;BME280;54902;50.420;18.854;2023-07-20T02:30:02;100706.64;;;18.45;60.69
55044;BME280;54902;50.420;18.854;2023-07-20T02:30:33;100703.03;;;18.44;61.10
55044;BME280;54902;50.420;18.854;2023-07-20T02:31:04;100715.13;;;18.43;61.04
55044;BME280;54902;50.420;18.854;2023-07-20T02:31:35;100711.51;;;18.43;61.04
55044;BME280;54902;50.420;18.854;2023-07-20T02:32:09;100703.36;;;18.41;60.76
55044;BME280;54902;50.420;18.854;2023-07-20T02:32:41;100709.78;;;18.42;60.51
55044;BME280;54902;50.420;18.854;2023-07-20T02:33:15;100702.70;;;18.39;60.59
55044;BME280;54902;50.420;18.854;2023-07-20T02:33:46;100703.73;;;18.38;60.49
55044;BME280;54902;50.420;18.854;2023-07-20T02:34:17;100710.30;;;18.37;60.80
55044;BME280;54902;50.420;18.854;2023-07-20T02:34:48;100707.54;;;18.37;60.93
55044;BME280;54902;50.420;18.854;2023-07-20T02:35:19;100714.13;;;18.36;61.09
55044;BME280;54902;50.420;18.854;2023-07-20T02:35:50;100710.48;;;18.36;61.06
55044;BME280;54902;50.420;18.854;2023-07-20T02:36:21;100712.41;;;18.35;61.62
55044;BME280;54902;50.420;18.854;2023-07-20T02:36:52;100707.72;;;18.36;61.64
55044;BME280;54902;50.420;18.854;2023-07-20T02:37:23;100706.86;;;18.35;61.53
55044;BME280;54902;50.420;18.854;2023-07-20T02:37:54;100712.59;;;18.34;61.68
55044;BME280;54902;50.420;18.854;2023-07-20T02:38:25;100712.59;;;18.34;61.99
55044;BME280;54902;50.420;18.854;2023-07-20T02:38:56;100707.90;;;18.34;62.06
55044;BME280;54902;50.420;18.854;2023-07-20T02:39:28;100715.54;;;18.32;61.85
55044;BME280;54902;50.420;18.854;2023-07-20T02:39:59;100713.62;;;18.33;62.40
55044;BME280;54902;50.420;18.854;2023-07-20T02:40:35;100708.27;;;18.31;62.02
55044;BME280;54902;50.420;18.854;2023-07-20T02:41:05;100708.27;;;18.31;61.90
55044;BME280;54902;50.420;18.854;2023-07-20T02:41:36;100710.15;;;18.31;62.22
55044;BME280;54902;50.420;18.854;2023-07-20T02:42:07;100715.02;;;18.29;62.29
55044;BME280;54902;50.420;18.854;2023-07-20T02:42:38;100715.87;;;18.29;62.47
55044;BME280;54902;50.420;18.854;2023-07-20T02:43:14;100715.02;;;18.29;62.68
55044;BME280;54902;50.420;18.854;2023-07-20T02:43:45;100716.93;;;18.28;62.69
55044;BME280;54902;50.420;18.854;2023-07-20T02:44:16;100711.55;;;18.27;62.82
55044;BME280;54902;50.420;18.854;2023-07-20T02:44:47;100707.94;;;18.26;62.53
55044;BME280;54902;50.420;18.854;2023-07-20T02:45:17;100714.32;;;18.27;62.55
55044;BME280;54902;50.420;18.854;2023-07-20T02:45:50;100708.97;;;18.25;62.93
55044;BME280;54902;50.420;18.854;2023-07-20T02:46:21;100704.47;;;18.24;62.77
55044;BME280;54902;50.420;18.854;2023-07-20T02:46:52;100711.07;;;18.23;62.65
55044;BME280;54902;50.420;18.854;2023-07-20T02:47:23;100701.89;;;18.23;62.60
55044;BME280;54902;50.420;18.854;2023-07-20T02:47:54;100714.87;;;18.22;62.58
55044;BME280;54902;50.420;18.854;2023-07-20T02:48:24;100714.16;;;18.20;62.36
55044;BME280;54902;50.420;18.854;2023-07-20T02:48:55;100710.55;;;18.20;62.49
55044;BME280;54902;50.420;18.854;2023-07-20T02:49:27;100710.73;;;18.18;62.79
55044;BME280;54902;50.420;18.854;2023-07-20T02:49:57;100710.73;;;18.18;62.69
55044;BME280;54902;50.420;18.854;2023-07-20T02:50:28;100708.15;;;18.17;62.60
55044;BME280;54902;50.420;18.854;2023-07-20T02:50:59;100710.92;;;18.17;62.62
55044;BME280;54902;50.420;18.854;2023-07-20T02:51:30;100710.03;;;18.16;62.53
55044;BME280;54902;50.420;18.854;2023-07-20T02:52:01;100722.14;;;18.15;63.11
55044;BME280;54902;50.420;18.854;2023-07-20T02:52:32;100716.60;;;18.15;63.27
55044;BME280;54902;50.420;18.854;2023-07-20T02:53:03;100709.34;;;18.14;63.07
55044;BME280;54902;50.420;18.854;2023-07-20T02:53:34;100713.13;;;18.13;62.84
55044;BME280;54902;50.420;18.854;2023-07-20T02:54:05;100719.70;;;18.12;63.18